Time;durP1;ratioP1;P1;durP2;ratioP2;P2;SDS_P1;SDS_P2;PMS_P1;PMS_P2;Temp;Humidity;BMP_temperature;BMP_pressure;BME280_temperature;BME280_humidity;BME280_pressure;Samples;Min_cycle;Max_cycle;Signal;HPM_P1;HPM_P2
2020/12/23 00:00:19;;;;;;;28.85;7.63;;;10.90;99.90;;;;;;4989615;28;20030;-76
2020/12/23 00:02:44;;;;;;;14.38;3.85;;;10.80;99.90;;;;;;4988350;28;20076;-77
2020/12/23 00:05:14;;;;;;;7.68;2.80;;;10.90;99.90;;;;;;5005035;28;20054;-75
2020/12/23 00:07:40;;;;;;;8.07;3.40;;;11.10;99.90;;;;;;4989230;28;20396;-76
2020/12/23 00:10:07;;;;;;;2.47;1.40;;;11.00;99.90;;;;;;4989179;28;20057;-76
2020/12/23 00:12:33;;;;;;;4.68;1.50;;;11.10;99.90;;;;;;5007066;28;20164;-76
2020/12/23 00:14:59;;;;;;;3.92;1.40;;;11.20;99.90;;;;;;5006482;28;20045;-76
2020/12/23 00:17:25;;;;;;;2.38;1.45;;;11.20;99.90;;;;;;5000130;28;20128;-76
2020/12/23 00:19:50;;;;;;;2.95;1.45;;;11.30;99.90;;;;;;5026728;28;20053;-76
2020/12/23 00:22:16;;;;;;;2.17;1.15;;;11.30;99.90;;;;;;5009347;28;20458;-77
2020/12/23 00:24:43;;;;;;;2.80;1.48;;;11.40;99.90;;;;;;5007919;28;20457;-76
2020/12/23 00:27:09;;;;;;;5.28;1.60;;;11.30;99.90;;;;;;5008623;28;20025;-77
2020/12/23 00:29:34;;;;;;;2.35;1.23;;;11.30;99.90;;;;;;5027155;28;20372;-76
2020/12/23 00:32:00;;;;;;;1.98;1.25;;;11.40;99.90;;;;;;5008683;28;20025;-77
2020/12/23 00:34:26;;;;;;;2.40;1.10;;;11.50;99.90;;;;;;5008370;28;20033;-75
2020/12/23 00:36:56;;;;;;;2.03;1.20;;;11.50;99.90;;;;;;5026557;28;20032;-76
2020/12/23 00:39:22;;;;;;;1.80;1.20;;;11.50;99.90;;;;;;5026513;28;20522;-77
2020/12/23 00:41:48;;;;;;;1.65;1.15;;;11.50;99.90;;;;;;5008635;28;20079;-78
2020/12/23 00:44:14;;;;;;;3.78;1.20;;;11.50;99.90;;;;;;5025737;28;20029;-77
2020/12/23 00:46:39;;;;;;;2.15;1.23;;;11.50;99.90;;;;;;5026257;28;20107;-76
2020/12/23 00:49:05;;;;;;;2.20;1.23;;;11.50;99.90;;;;;;5026334;28;20068;-76
2020/12/23 00:51:31;;;;;;;2.35;1.13;;;11.50;99.90;;;;;;5026871;28;20575;-76
2020/12/23 00:53:56;;;;;;;2.03;1.00;;;11.40;99.90;;;;;;5026103;28;20377;-77
2020/12/23 00:56:22;;;;;;;1.88;1.10;;;11.50;99.90;;;;;;5028546;28;20026;-76
2020/12/23 00:58:48;;;;;;;2.78;1.10;;;11.60;99.90;;;;;;5021805;28;20033;-76
2020/12/23 01:01:14;;;;;;;2.55;1.20;;;11.60;99.90;;;;;;5021485;28;20041;-77
2020/12/23 01:03:40;;;;;;;3.20;1.27;;;11.60;99.90;;;;;;5021625;28;20035;-76
2020/12/23 01:06:07;;;;;;;2.35;1.20;;;11.50;99.90;;;;;;5026753;28;20033;-76
2020/12/23 01:08:33;;;;;;;1.93;1.10;;;11.50;99.90;;;;;;5012142;28;20061;-75
2020/12/23 01:10:58;;;;;;;1.80;1.10;;;11.50;99.90;;;;;;5012082;28;20384;-77
2020/12/23 01:13:24;;;;;;;1.45;1.00;;;11.60;99.90;;;;;;5029757;28;20469;-76
2020/12/23 01:15:50;;;;;;;1.83;1.27;;;11.60;99.90;;;;;;5029330;28;20606;-76
2020/12/23 01:18:15;;;;;;;4.05;1.30;;;11.50;99.90;;;;;;5011882;28;20499;-76
2020/12/23 01:20:41;;;;;;;2.30;1.23;;;11.40;99.90;;;;;;5030078;28;20029;-77
2020/12/23 01:23:07;;;;;;;1.95;1.17;;;11.40;99.90;;;;;;5011923;28;20488;-76
2020/12/23 01:25:33;;;;;;;1.90;1.30;;;11.50;99.90;;;;;;5029443;28;20425;-76
2020/12/23 01:27:58;;;;;;;3.83;1.67;;;11.40;99.90;;;;;;5029512;28;20056;-76
2020/12/23 01:30:24;;;;;;;6.43;1.85;;;11.40;99.90;;;;;;5029735;28;20021;-77
2020/12/23 01:32:50;;;;;;;2.38;1.25;;;11.40;99.90;;;;;;5011700;28;20025;-77
2020/12/23 01:35:16;;;;;;;2.90;1.50;;;11.50;99.90;;;;;;5029396;28;20099;-76
2020/12/23 01:37:41;;;;;;;5.80;1.60;;;11.50;99.90;;;;;;5011505;28;20439;-77
2020/12/23 01:40:07;;;;;;;4.15;1.48;;;11.50;99.90;;;;;;5029578;28;20025;-76
2020/12/23 01:42:34;;;;;;;6.18;1.48;;;11.50;99.90;;;;;;5029397;28;20108;-76
2020/12/23 01:45:00;;;;;;;2.10;1.27;;;11.50;99.90;;;;;;5028522;28;20033;-76
2020/12/23 01:47:30;;;;;;;2.97;1.20;;;11.50;99.90;;;;;;5029433;28;20026;-75
2020/12/23 01:49:57;;;;;;;2.95;1.40;;;11.50;99.90;;;;;;5029323;28;20124;-76
2020/12/23 01:52:24;;;;;;;2.00;1.23;;;11.50;99.90;;;;;;5029114;28;20029;-76
2020/12/23 01:54:51;;;;;;;1.85;1.15;;;11.40;99.90;;;;;;5029346;28;20472;-76
2020/12/23 01:57:17;;;;;;;2.08;1.23;;;11.40;99.90;;;;;;5011358;28;20068;-75
2020/12/23 01:59:49;;;;;;;2.47;1.40;;;11.40;99.90;;;;;;5028846;28;20034;-78
2020/12/23 02:02:31;;;;;;;2.17;1.10;;;11.50;99.90;;;;;;5028951;28;20029;-77
2020/12/23 02:05:01;;;;;;;2.45;1.10;;;11.50;99.90;;;;;;5028551;28;20635;-76
2020/12/23 02:07:28;;;;;;;2.97;1.08;;;11.60;99.90;;;;;;5020431;28;20018;-75
2020/12/23 02:09:56;;;;;;;1.67;1.05;;;11.60;99.90;;;;;;5009171;28;20025;-76
2020/12/23 02:12:22;;;;;;;2.00;1.05;;;11.60;99.90;;;;;;4991307;28;20022;-76
2020/12/23 02:14:48;;;;;;;4.60;1.10;;;11.60;99.90;;;;;;5007913;28;20547;-77
2020/12/23 02:17:14;;;;;;;1.48;1.00;;;11.70;99.90;;;;;;5008959;28;20122;-76
2020/12/23 02:19:50;;;;;;;3.80;1.20;;;11.60;99.90;;;;;;4991129;28;20026;-76
2020/12/23 02:22:39;;;;;;;2.00;0.80;;;11.60;99.90;;;;;;5008819;28;20057;-78
2020/12/23 02:25:05;;;;;;;2.45;1.10;;;11.60;99.90;;;;;;5008459;28;20029;-77
2020/12/23 02:27:31;;;;;;;1.42;0.80;;;11.80;99.90;;;;;;5008843;28;20504;-76
2020/12/23 02:29:58;;;;;;;2.33;0.90;;;12.00;99.90;;;;;;5008619;28;20145;-77
2020/12/23 02:32:24;;;;;;;1.57;0.90;;;12.10;99.90;;;;;;5024145;28;20509;-76
2020/12/23 02:34:50;;;;;;;1.83;0.98;;;12.20;99.90;;;;;;5008119;28;20271;-78
2020/12/23 02:37:17;;;;;;;1.80;1.00;;;12.30;99.90;;;;;;4983875;28;20622;-76
2020/12/23 02:39:46;;;;;;;2.85;0.88;;;12.30;99.90;;;;;;5006229;28;20507;-76
2020/12/23 02:42:12;;;;;;;4.28;1.80;;;12.30;99.90;;;;;;4990972;28;20025;-76
2020/12/23 02:44:37;;;;;;;3.83;1.10;;;12.40;99.90;;;;;;5007574;28;20053;-77
2020/12/23 02:47:07;;;;;;;1.60;0.80;;;12.20;99.90;;;;;;5008525;28;20053;-77
2020/12/23 02:49:33;;;;;;;2.55;1.00;;;12.20;99.90;;;;;;5008609;28;20030;-77
2020/12/23 02:51:58;;;;;;;2.72;1.05;;;12.10;99.90;;;;;;4990644;28;20026;-77
2020/12/23 02:54:24;;;;;;;2.03;0.90;;;11.90;99.90;;;;;;4990065;28;20056;-76
2020/12/23 02:56:51;;;;;;;1.30;0.80;;;11.80;99.90;;;;;;4990550;28;20029;-76
2020/12/23 02:59:17;;;;;;;2.67;0.98;;;11.90;99.90;;;;;;5008183;28;20030;-77
2020/12/23 03:01:42;;;;;;;1.38;0.82;;;11.80;99.90;;;;;;4991767;28;20436;-76
2020/12/23 03:04:08;;;;;;;1.67;1.00;;;11.70;99.90;;;;;;5010125;28;20026;-76
2020/12/23 03:06:35;;;;;;;1.42;0.95;;;11.70;99.90;;;;;;5010793;28;20492;-76
2020/12/23 03:09:05;;;;;;;1.83;0.90;;;11.70;99.90;;;;;;5011231;28;20036;-77
2020/12/23 03:11:31;;;;;;;2.05;0.90;;;11.80;99.90;;;;;;5010878;28;20017;-77
2020/12/23 03:13:57;;;;;;;1.88;0.90;;;11.80;99.90;;;;;;4992866;28;20040;-77
2020/12/23 03:16:23;;;;;;;1.58;0.95;;;11.80;99.90;;;;;;4992641;28;20112;-77
2020/12/23 03:18:49;;;;;;;1.50;0.80;;;11.70;99.90;;;;;;5010056;28;20026;-77
2020/12/23 03:21:14;;;;;;;1.50;0.77;;;11.70;99.90;;;;;;5010451;28;20037;-77
2020/12/23 03:23:40;;;;;;;1.58;0.90;;;11.80;99.90;;;;;;5010585;28;20029;-76
2020/12/23 03:26:06;;;;;;;2.10;1.00;;;11.70;99.90;;;;;;5009841;28;20384;-77
2020/12/23 03:28:32;;;;;;;1.48;0.85;;;11.80;99.90;;;;;;5010238;28;20060;-77
2020/12/23 03:30:58;;;;;;;2.63;0.90;;;11.90;99.90;;;;;;5010454;28;20392;-76
2020/12/23 03:33:24;;;;;;;2.13;0.90;;;11.90;99.90;;;;;;5010346;28;20048;-75
2020/12/23 03:35:50;;;;;;;2.20;0.98;;;11.90;99.90;;;;;;5009643;28;20029;-77
2020/12/23 03:38:15;;;;;;;3.15;0.90;;;11.80;99.90;;;;;;4992650;28;20022;-77
2020/12/23 03:40:41;;;;;;;1.63;0.90;;;11.70;99.90;;;;;;5010227;28;20374;-76
2020/12/23 03:43:07;;;;;;;1.30;0.98;;;11.60;99.90;;;;;;4992435;28;20481;-77
2020/12/23 03:45:32;;;;;;;3.05;1.20;;;11.50;99.90;;;;;;4991699;28;20503;-76
2020/12/23 03:47:58;;;;;;;2.95;1.08;;;11.50;99.90;;;;;;4992493;28;20626;-76
2020/12/23 03:50:24;;;;;;;1.85;1.00;;;11.40;99.90;;;;;;5009880;28;20068;-77
2020/12/23 03:52:49;;;;;;;1.65;1.02;;;11.40;99.90;;;;;;4992475;28;20205;-77
2020/12/23 03:55:15;;;;;;;2.80;1.10;;;11.40;99.90;;;;;;5009349;28;20084;-77
2020/12/23 03:57:40;;;;;;;1.70;0.90;;;11.40;99.90;;;;;;4992418;28;20116;-77
2020/12/23 04:00:09;;;;;;;1.33;0.93;;;11.50;99.90;;;;;;4992480;28;20084;-77
2020/12/23 04:02:35;;;;;;;2.50;0.98;;;11.70;99.90;;;;;;4991194;28;20033;-77
2020/12/23 04:05:01;;;;;;;1.10;0.90;;;11.70;99.90;;;;;;4989273;28;20128;-77
2020/12/23 04:07:27;;;;;;;1.30;0.90;;;11.60;99.90;;;;;;5007909;28;20026;-76
2020/12/23 04:09:53;;;;;;;11.05;3.22;;;11.60;99.90;;;;;;5007796;28;20054;-76
2020/12/23 04:12:19;;;;;;;8.43;3.50;;;11.50;99.90;;;;;;4988792;28;20057;-78
2020/12/23 04:14:45;;;;;;;4.00;1.70;;;11.50;99.90;;;;;;5006826;28;20109;-78
2020/12/23 04:17:10;;;;;;;2.65;1.27;;;11.50;99.90;;;;;;5016076;28;20021;-77
2020/12/23 04:19:36;;;;;;;1.77;1.10;;;11.40;99.90;;;;;;5008925;28;20091;-77
2020/12/23 04:22:02;;;;;;;1.75;1.20;;;11.40;99.90;;;;;;5026857;28;20087;-77
2020/12/23 04:24:27;;;;;;;2.80;1.33;;;11.40;99.90;;;;;;5026649;28;20028;-76
2020/12/23 04:26:53;;;;;;;1.98;1.02;;;11.50;99.90;;;;;;5008787;28;20021;-78
2020/12/23 04:29:18;;;;;;;1.73;1.10;;;11.60;99.90;;;;;;5009678;28;20030;-76
2020/12/23 04:31:44;;;;;;;1.25;0.70;;;11.80;99.90;;;;;;5012885;28;20670;-76
2020/12/23 04:34:10;;;;;;;1.45;0.90;;;11.90;99.90;;;;;;5012431;28;20037;-77
2020/12/23 04:36:35;;;;;;;1.40;0.80;;;12.00;99.90;;;;;;5029953;28;20026;-76
2020/12/23 04:39:01;;;;;;;2.17;1.00;;;12.00;99.90;;;;;;5030737;28;20030;-76
2020/12/23 04:41:27;;;;;;;1.20;0.68;;;12.10;99.90;;;;;;5030539;28;20025;-76
2020/12/23 04:43:53;;;;;;;1.50;0.98;;;12.20;99.90;;;;;;5030347;28;20036;-77
2020/12/23 04:46:24;;;;;;;1.65;0.85;;;12.10;99.90;;;;;;5012162;28;20118;-76
2020/12/23 04:48:57;;;;;;;1.48;0.80;;;12.20;99.90;;;;;;5012665;28;20025;-76
2020/12/23 04:51:37;;;;;;;2.47;1.10;;;12.00;99.90;;;;;;5012550;28;20033;-79
2020/12/23 04:54:05;;;;;;;4.45;0.77;;;12.10;99.90;;;;;;5012305;28;20676;-78
2020/12/23 04:56:33;;;;;;;1.00;0.80;;;12.10;99.90;;;;;;5012237;28;20116;-78
2020/12/23 04:58:59;;;;;;;;;;;12.00;99.90;;;;;;5013330;28;20021;-75
2020/12/23 05:01:25;;;;;;;1.35;0.90;;;12.00;99.90;;;;;;5030207;28;19935;-77
2020/12/23 05:03:54;;;;;;;1.50;0.90;;;11.80;99.90;;;;;;5030243;28;20026;-76
2020/12/23 05:06:24;;;;;;;2.50;1.10;;;11.90;99.90;;;;;;5029457;28;20028;-77
2020/12/23 05:08:50;;;;;;;1.92;0.82;;;11.90;99.90;;;;;;5030357;28;20018;-76
2020/12/23 05:11:16;;;;;;;3.60;0.90;;;11.80;99.90;;;;;;5012270;28;20048;-76
2020/12/23 05:13:43;;;;;;;2.58;0.90;;;11.70;99.90;;;;;;5029638;28;20072;-76
2020/12/23 05:16:18;;;;;;;7.75;1.20;;;11.60;99.90;;;;;;5010762;28;20037;-76
2020/12/23 05:18:44;;;;;;;1.90;0.95;;;11.50;99.90;;;;;;5009963;28;20029;-77
2020/12/23 05:21:16;;;;;;;3.10;1.02;;;11.60;99.90;;;;;;5010155;28;20104;-77
2020/12/23 05:23:46;;;;;;;2.72;1.00;;;11.50;99.90;;;;;;5009820;28;20413;-77
2020/12/23 05:26:14;;;;;;;2.65;1.02;;;11.70;99.90;;;;;;4991050;28;20618;-78
2020/12/23 05:28:41;;;;;;;2.58;1.10;;;11.70;99.90;;;;;;4995836;28;20038;-76
2020/12/23 05:31:12;;;;;;;1.38;1.00;;;11.60;99.90;;;;;;4978339;28;20418;-76
2020/12/23 05:33:40;;;;;;;3.03;1.17;;;11.40;99.90;;;;;;4992185;28;20033;-75
2020/12/23 05:36:12;;;;;;;;;;;11.40;99.90;;;;;;5009439;28;20694;-76
2020/12/23 05:38:38;;;;;;;2.42;1.20;;;11.40;99.90;;;;;;4992154;28;19906;-75
2020/12/23 05:41:10;;;;;;;1.92;0.90;;;11.40;99.90;;;;;;5008691;28;20049;-77
2020/12/23 05:43:35;;;;;;;3.30;1.30;;;11.30;99.90;;;;;;5009732;28;20030;-75
2020/12/23 05:46:04;;;;;;;1.60;1.10;;;11.30;99.90;;;;;;5008947;28;20152;-76
2020/12/23 05:48:34;;;;;;;2.70;1.08;;;11.20;99.90;;;;;;5002770;28;20061;-76
2020/12/23 05:51:01;;;;;;;3.20;1.20;;;11.20;99.90;;;;;;5011761;28;20616;-77
2020/12/23 05:53:28;;;;;;;2.13;1.10;;;11.20;99.90;;;;;;5011544;28;20025;-77
2020/12/23 05:55:54;;;;;;;2.37;1.10;;;11.20;99.90;;;;;;5028261;28;20057;-77
2020/12/23 05:58:35;;;;;;;8.38;1.30;;;11.30;99.90;;;;;;5011285;28;20021;-76
2020/12/23 06:01:05;;;;;;;3.28;1.60;;;11.20;99.90;;;;;;5029190;28;20045;-77
2020/12/23 06:03:57;;;;;;;3.40;1.70;;;11.20;99.90;;;;;;5010977;28;20028;-77
2020/12/23 06:06:30;;;;;;;5.47;1.60;;;11.20;99.90;;;;;;5028577;28;20045;-76
2020/12/23 06:08:56;;;;;;;3.35;1.45;;;11.20;99.90;;;;;;5011155;28;20024;-76
2020/12/23 06:11:56;;;;;;;3.33;1.50;;;11.20;99.90;;;;;;5028651;28;20036;-76
2020/12/23 06:14:23;;;;;;;2.50;1.20;;;11.10;99.90;;;;;;5006319;28;20049;-76
2020/12/23 06:16:58;;;;;;;2.70;1.70;;;11.20;99.90;;;;;;5010977;28;20479;-77
2020/12/23 06:19:28;;;;;;;2.75;1.40;;;11.20;99.90;;;;;;5010757;28;20061;-77
2020/12/23 06:21:56;;;;;;;3.63;1.20;;;11.20;99.90;;;;;;5029017;28;20360;-77
2020/12/23 06:24:22;;;;;;;2.63;1.20;;;11.40;99.90;;;;;;5028038;28;20026;-78
2020/12/23 06:26:51;;;;;;;1.88;1.08;;;11.50;99.90;;;;;;5010653;28;20029;-77
2020/12/23 06:29:19;;;;;;;2.08;1.20;;;11.50;99.90;;;;;;5011167;28;20037;-77
2020/12/23 06:31:53;;;;;;;2.95;1.38;;;11.50;99.90;;;;;;5028634;28;20028;-78
2020/12/23 06:34:24;;;;;;;1.75;1.20;;;11.40;99.90;;;;;;5027537;28;20029;-78
2020/12/23 06:36:52;;;;;;;2.13;1.30;;;11.40;99.90;;;;;;5028734;28;20353;-77
2020/12/23 06:39:41;;;;;;;2.88;1.30;;;11.40;99.90;;;;;;5020263;28;20021;-78
2020/12/23 06:42:07;;;;;;;2.97;1.48;;;11.50;99.90;;;;;;4990682;28;20030;-78
2020/12/23 06:44:41;;;;;;;3.08;1.60;;;11.40;99.90;;;;;;4990590;28;20045;-76
2020/12/23 06:47:20;;;;;;;3.17;1.35;;;11.30;99.90;;;;;;4990618;28;20022;-77
2020/12/23 06:50:10;;;;;;;3.30;1.58;;;11.30;99.90;;;;;;5008260;28;20113;-76
2020/12/23 06:52:40;;;;;;;4.38;1.85;;;11.30;99.90;;;;;;4982654;28;20092;-78
2020/12/23 06:55:06;;;;;;;2.95;1.90;;;11.20;99.90;;;;;;4989450;28;20472;-78
2020/12/23 06:57:35;;;;;;;3.25;2.15;;;11.10;99.90;;;;;;4990729;28;20033;-77
2020/12/23 07:00:07;;;;;;;3.55;1.90;;;11.00;99.90;;;;;;5008450;28;20022;-77
2020/12/23 07:02:41;;;;;;;3.20;1.80;;;10.90;99.90;;;;;;4990476;28;20038;-76
2020/12/23 07:05:08;;;;;;;2.95;2.00;;;10.90;99.90;;;;;;4989931;28;20121;-78
2020/12/23 07:07:42;;;;;;;4.10;2.00;;;10.80;99.90;;;;;;4990396;28;20022;-76
2020/12/23 07:10:15;;;;;;;4.57;2.75;;;10.80;99.90;;;;;;5007963;28;20014;-77
2020/12/23 07:13:04;;;;;;;9.85;7.13;;;10.80;99.90;;;;;;5008062;28;20029;-77
2020/12/23 07:15:41;;;;;;;8.00;5.30;;;10.70;99.90;;;;;;5007356;28;20057;-78
2020/12/23 07:18:16;;;;;;;5.22;3.97;;;;;;;;;;5007651;28;20050;-76
2020/12/23 07:20:46;;;;;;;8.98;6.55;;;;;;;;;;4990235;28;20030;-77
2020/12/23 07:23:13;;;;;;;18.15;14.75;;;;;;;;;;5007916;28;20099;-77
2020/12/23 07:25:40;;;;;;;37.97;29.30;;;;;;;;;;5006556;28;20030;-77
2020/12/23 07:28:07;;;;;;;22.10;18.17;;;;;;;;;;5007849;28;20340;-77
2020/12/23 07:30:36;;;;;;;15.55;12.93;;;10.70;99.90;;;;;;4990250;28;20030;-77
2020/12/23 07:33:08;;;;;;;5.28;3.50;;;10.70;99.90;;;;;;4990101;28;20117;-77
2020/12/23 07:35:35;;;;;;;5.13;3.75;;;10.80;99.90;;;;;;5007149;28;20052;-78
2020/12/23 07:38:03;;;;;;;11.05;7.32;;;10.80;99.90;;;;;;5008044;28;20852;-76
2020/12/23 07:40:30;;;;;;;9.38;6.85;;;10.70;99.90;;;;;;5007362;28;20393;-78
2020/12/23 07:42:56;;;;;;;10.50;9.40;;;10.70;99.90;;;;;;4989879;28;20033;-77
2020/12/23 07:45:23;;;;;;;17.67;13.30;;;10.70;99.90;;;;;;5006691;28;20022;-75
2020/12/23 07:48:04;;;;;;;11.27;8.25;;;10.70;99.90;;;;;;5005845;28;20467;-76
2020/12/23 07:50:33;;;;;;;8.20;6.32;;;10.80;99.90;;;;;;4989527;28;20026;-78
2020/12/23 07:53:10;;;;;;;4.60;2.85;;;10.80;99.90;;;;;;5006890;28;20018;-79
2020/12/23 07:55:36;;;;;;;4.68;3.33;;;10.90;99.90;;;;;;5006084;28;20033;-77
2020/12/23 07:58:02;;;;;;;6.07;2.75;;;10.90;99.90;;;;;;5006909;28;20041;-77
2020/12/23 08:00:29;;;;;;;3.47;2.15;;;11.00;99.90;;;;;;5007419;28;20033;-76
2020/12/23 08:02:55;;;;;;;3.50;2.03;;;11.20;99.90;;;;;;5007089;28;20040;-78
2020/12/23 08:05:20;;;;;;;4.13;2.00;;;11.20;99.90;;;;;;5006286;28;20485;-78
2020/12/23 08:07:46;;;;;;;3.83;2.42;;;11.30;99.90;;;;;;4989678;28;20705;-78
2020/12/23 08:10:14;;;;;;;4.25;2.78;;;11.20;99.90;;;;;;4989352;28;20034;-77
2020/12/23 08:12:42;;;;;;;5.10;3.17;;;11.20;99.90;;;;;;5007442;28;20026;-77
2020/12/23 08:15:09;;;;;;;4.57;3.17;;;11.20;99.90;;;;;;4989092;28;20030;-76
2020/12/23 08:17:35;;;;;;;7.22;3.60;;;11.30;99.90;;;;;;5007061;28;20032;-78
2020/12/23 08:20:05;;;;;;;6.28;2.55;;;11.40;99.90;;;;;;4989565;28;20145;-77
2020/12/23 08:22:31;;;;;;;4.50;2.20;;;11.40;99.90;;;;;;5007363;28;20645;-76
2020/12/23 08:25:11;;;;;;;3.53;2.00;;;11.60;99.90;;;;;;5006139;28;20056;-77
2020/12/23 08:27:38;;;;;;;4.35;2.40;;;11.70;99.90;;;;;;5007196;28;20018;-78
2020/12/23 08:30:06;;;;;;;6.40;2.78;;;11.70;99.90;;;;;;5007215;28;20021;-78
2020/12/23 08:32:36;;;;;;;6.20;2.75;;;11.60;99.90;;;;;;5006904;28;20113;-77
2020/12/23 08:35:03;;;;;;;5.82;3.35;;;11.70;99.90;;;;;;5006513;28;20029;-77
2020/12/23 08:37:29;;;;;;;6.10;3.35;;;11.60;99.90;;;;;;5007106;28;20089;-78
2020/12/23 08:39:57;;;;;;;6.32;3.75;;;11.60;99.90;;;;;;4989146;28;20040;-77
2020/12/23 08:42:23;;;;;;;5.40;3.50;;;11.70;99.90;;;;;;5007275;28;20034;-78
2020/12/23 08:44:52;;;;;;;5.10;3.28;;;11.60;99.90;;;;;;5006240;28;20030;-78
2020/12/23 08:47:22;;;;;;;6.78;3.78;;;11.60;99.90;;;;;;5007005;28;20025;-77
2020/12/23 08:49:48;;;;;;;6.47;3.70;;;11.50;99.90;;;;;;5006897;28;20053;-78
2020/12/23 08:52:18;;;;;;;5.90;3.10;;;11.50;99.90;;;;;;4989442;28;20029;-78
2020/12/23 08:54:44;;;;;;;5.43;3.25;;;11.50;99.90;;;;;;5006054;28;20053;-76
2020/12/23 08:57:12;;;;;;;5.13;3.15;;;11.50;99.90;;;;;;5006874;28;20384;-79
2020/12/23 08:59:41;;;;;;;5.35;3.05;;;11.50;99.90;;;;;;4989406;28;20034;-77
2020/12/23 09:02:14;;;;;;;5.10;3.03;;;11.50;99.90;;;;;;4989202;28;20034;-78
2020/12/23 09:04:40;;;;;;;6.15;2.20;;;11.50;99.90;;;;;;5006285;28;20022;-78
2020/12/23 09:07:06;;;;;;;4.70;2.17;;;11.60;99.90;;;;;;5006829;28;20423;-78
2020/12/23 09:09:32;;;;;;;4.43;2.20;;;11.60;99.90;;;;;;5006743;28;20022;-78
2020/12/23 09:11:58;;;;;;;3.85;2.13;;;11.60;99.90;;;;;;5006949;28;20022;-77
2020/12/23 09:14:36;;;;;;;3.08;1.80;;;11.60;99.90;;;;;;5006194;28;20393;-77
2020/12/23 09:17:10;;;;;;;;;;;11.80;99.90;;;;;;4991058;28;20072;-77
2020/12/23 09:20:05;;;;;;;4.88;2.08;;;11.90;99.90;;;;;;4992728;28;19968;-76
2020/12/23 09:22:32;;;;;;;3.35;1.65;;;12.20;99.90;;;;;;5010557;28;20022;-77
2020/12/23 09:25:26;;;;;;;3.58;1.70;;;12.30;99.90;;;;;;5009359;28;20022;-77
2020/12/23 09:27:56;;;;;;;3.88;2.13;;;12.50;99.90;;;;;;5010160;28;20058;-78
2020/12/23 09:30:43;;;;;;;5.05;2.20;;;12.50;99.90;;;;;;5010039;28;20080;-77
2020/12/23 09:33:11;;;;;;;5.28;2.15;;;12.60;99.90;;;;;;5010280;28;20018;-77
2020/12/23 09:35:37;;;;;;;;;;;12.60;99.90;;;;;;4991976;28;20037;-78
2020/12/23 09:38:12;;;;;;;3.28;2.00;;;12.60;99.90;;;;;;5009545;28;19913;-78
2020/12/23 09:40:49;;;;;;;5.00;2.08;;;12.70;99.90;;;;;;4992459;28;20052;-77
2020/12/23 09:43:18;;;;;;;4.18;2.10;;;12.50;99.90;;;;;;4992250;28;20476;-77
2020/12/23 09:45:44;;;;;;;4.18;1.88;;;12.50;99.90;;;;;;4991171;28;20038;-78
2020/12/23 09:48:10;;;;;;;5.13;1.95;;;12.60;99.90;;;;;;5009976;28;20065;-78
2020/12/23 09:50:35;;;;;;;3.88;1.80;;;12.60;99.90;;;;;;4991921;28;20034;-78
2020/12/23 09:53:01;;;;;;;4.18;2.10;;;12.70;99.90;;;;;;5009465;28;20052;-77
2020/12/23 09:55:28;;;;;;;3.72;2.10;;;12.80;99.90;;;;;;4991584;28;20034;-78
2020/12/23 09:57:53;;;;;;;3.55;1.70;;;12.90;99.90;;;;;;5024856;28;20022;-77
2020/12/23 10:00:20;;;;;;;3.45;1.80;;;13.00;99.90;;;;;;5024359;28;20461;-78
2020/12/23 10:02:46;;;;;;;4.35;1.70;;;13.10;99.90;;;;;;5009729;28;20029;-76
2020/12/23 10:05:11;;;;;;;2.92;1.80;;;13.20;99.90;;;;;;5008683;28;20030;-77
2020/12/23 10:07:37;;;;;;;4.65;1.90;;;13.20;99.90;;;;;;5009045;28;20149;-77
2020/12/23 10:10:04;;;;;;;3.20;1.52;;;13.20;99.90;;;;;;5009849;28;20473;-78
2020/12/23 10:12:29;;;;;;;2.88;1.50;;;13.30;99.90;;;;;;4993021;28;20504;-78
2020/12/23 10:14:55;;;;;;;4.78;1.60;;;13.30;99.90;;;;;;5010304;28;20033;-79
2020/12/23 10:17:23;;;;;;;3.63;1.80;;;13.00;99.90;;;;;;5009618;28;20539;-79
2020/12/23 10:19:48;;;;;;;2.88;1.60;;;13.10;99.90;;;;;;4992448;28;20026;-80
2020/12/23 10:22:14;;;;;;;3.40;1.50;;;13.20;99.90;;;;;;5025453;28;20041;-80
2020/12/23 10:24:40;;;;;;;4.38;1.95;;;13.30;99.90;;;;;;4991629;28;20032;-80
2020/12/23 10:27:05;;;;;;;3.40;1.80;;;13.30;99.90;;;;;;5009757;28;20026;-81
2020/12/23 10:29:31;;;;;;;3.67;2.05;;;13.40;99.90;;;;;;5025351;28;20113;-79
2020/12/23 10:31:57;;;;;;;4.32;2.38;;;13.30;99.90;;;;;;4992588;28;20076;-79
2020/12/23 10:34:22;;;;;;;3.05;1.80;;;13.50;99.90;;;;;;4991868;28;20484;-80
2020/12/23 10:36:48;;;;;;;4.03;2.05;;;13.60;99.90;;;;;;4992263;28;20030;-80
2020/12/23 10:39:17;;;;;;;4.03;2.30;;;13.80;99.90;;;;;;5016958;28;20026;-80
2020/12/23 10:41:43;;;;;;;3.58;1.90;;;13.90;99.90;;;;;;5011622;28;20086;-80
2020/12/23 10:44:10;;;;;;;3.85;1.98;;;13.90;99.90;;;;;;5028930;28;20021;-79
2020/12/23 10:46:36;;;;;;;2.83;1.50;;;13.90;99.90;;;;;;5011198;28;20456;-80
2020/12/23 10:49:02;;;;;;;2.33;1.45;;;;;;;;;;5011190;28;20029;-80
2020/12/23 10:51:28;;;;;;;2.45;1.70;;;;;;;;;;5029103;28;20448;-80
2020/12/23 10:53:54;;;;;;;3.03;1.50;;;;;;;;;;5010729;28;20044;-80
2020/12/23 10:56:20;;;;;;;3.05;1.70;;;;;;;;;;5010588;28;20480;-80
2020/12/23 10:58:46;;;;;;;3.03;1.40;;;;;;;;;;5029146;28;20033;-80
2020/12/23 11:01:16;;;;;;;3.58;1.80;;;14.40;99.90;;;;;;5010116;28;20040;-80
2020/12/23 11:03:42;;;;;;;4.20;1.80;;;14.40;99.90;;;;;;5008265;28;20393;-80
2020/12/23 11:06:07;;;;;;;2.75;1.70;;;14.30;99.90;;;;;;4990946;28;20488;-80
2020/12/23 11:08:33;;;;;;;3.63;1.85;;;13.90;99.90;;;;;;5008718;28;20025;-80
2020/12/23 11:10:59;;;;;;;3.05;1.90;;;14.10;99.90;;;;;;5009236;28;20120;-82
2020/12/23 11:13:24;;;;;;;3.03;1.88;;;14.10;99.90;;;;;;5009507;28;20037;-79
2020/12/23 11:15:50;;;;;;;3.90;2.17;;;14.00;99.90;;;;;;4991305;28;20040;-81
2020/12/23 11:18:16;;;;;;;3.92;2.03;;;14.00;99.90;;;;;;4991875;28;20088;-80
2020/12/23 11:20:41;;;;;;;5.47;2.10;;;13.90;99.90;;;;;;4991717;28;20026;-80
2020/12/23 11:23:07;;;;;;;9.43;2.30;;;14.00;99.90;;;;;;4992380;28;20021;-79
2020/12/23 11:25:33;;;;;;;3.90;2.20;;;14.00;99.90;;;;;;4991556;28;20727;-79
2020/12/23 11:27:58;;;;;;;5.53;1.90;;;14.00;99.90;;;;;;5008859;28;20022;-80
2020/12/23 11:30:24;;;;;;;3.58;1.88;;;14.00;99.90;;;;;;5008786;28;20476;-80
2020/12/23 11:32:50;;;;;;;4.80;2.13;;;13.90;99.90;;;;;;4991406;28;20026;-80
2020/12/23 11:35:16;;;;;;;5.80;2.33;;;13.80;99.90;;;;;;5008841;28;20025;-80
2020/12/23 11:37:42;;;;;;;4.35;2.08;;;13.70;99.90;;;;;;4991091;28;20453;-80
2020/12/23 11:40:07;;;;;;;3.90;2.08;;;13.90;99.90;;;;;;5008573;28;20076;-80
2020/12/23 11:42:37;;;;;;;3.50;2.20;;;13.80;99.90;;;;;;4991362;28;20025;-79
2020/12/23 11:45:03;;;;;;;5.43;2.33;;;13.80;99.90;;;;;;4990461;28;20064;-80
2020/12/23 11:47:28;;;;;;;4.43;2.50;;;13.80;99.90;;;;;;4991165;28;20422;-80
2020/12/23 11:49:54;;;;;;;6.18;2.40;;;13.80;99.90;;;;;;4991108;28;20104;-80
2020/12/23 11:52:20;;;;;;;3.70;2.10;;;13.70;99.90;;;;;;5008452;28;20485;-80
2020/12/23 11:54:45;;;;;;;6.00;2.40;;;13.80;99.90;;;;;;4991181;28;20065;-80
2020/12/23 11:57:11;;;;;;;5.88;2.55;;;13.80;99.90;;;;;;4992129;28;20032;-81
2020/12/23 11:59:36;;;;;;;4.75;2.40;;;13.60;99.90;;;;;;4992410;28;20030;-78
2020/12/23 12:02:03;;;;;;;4.57;2.22;;;13.50;99.90;;;;;;5011464;28;20076;-80
2020/12/23 12:04:29;;;;;;;6.20;2.38;;;13.70;99.90;;;;;;4992785;28;20129;-79
2020/12/23 12:06:56;;;;;;;7.57;2.53;;;13.80;99.90;;;;;;4992753;28;20558;-79
2020/12/23 12:09:22;;;;;;;4.47;2.20;;;13.90;99.90;;;;;;4992387;28;20076;-79
2020/12/23 12:11:52;;;;;;;4.65;2.58;;;13.80;99.90;;;;;;5008892;28;20038;-79
2020/12/23 12:14:18;;;;;;;5.43;2.67;;;13.90;99.90;;;;;;5007757;28;20022;-79
2020/12/23 12:16:45;;;;;;;5.55;2.50;;;14.00;99.90;;;;;;4991254;28;20068;-80
2020/12/23 12:19:10;;;;;;;6.88;2.47;;;14.20;99.90;;;;;;4990940;28;20022;-79
2020/12/23 12:21:36;;;;;;;4.85;2.60;;;14.40;99.90;;;;;;5008045;28;20556;-78
2020/12/23 12:24:02;;;;;;;5.53;2.38;;;14.50;99.90;;;;;;4990507;28;20473;-79
2020/12/23 12:26:32;;;;;;;4.85;2.40;;;14.40;99.90;;;;;;5008152;28;20032;-78
2020/12/23 12:28:59;;;;;;;6.00;2.55;;;14.40;99.90;;;;;;4990883;28;20029;-79
2020/12/23 12:31:25;;;;;;;3.67;1.98;;;14.60;99.90;;;;;;4990274;28;20060;-80
2020/12/23 12:33:51;;;;;;;3.85;1.95;;;14.40;99.90;;;;;;4990511;28;20890;-80
2020/12/23 12:36:16;;;;;;;3.28;1.83;;;14.50;99.90;;;;;;4989850;28;20113;-78
2020/12/23 12:38:42;;;;;;;4.75;2.08;;;14.60;99.90;;;;;;5007671;28;20672;-79
2020/12/23 12:41:08;;;;;;;4.03;1.90;;;14.50;99.90;;;;;;5007540;28;20026;-81
2020/12/23 12:43:34;;;;;;;4.50;1.80;;;14.40;99.90;;;;;;4990204;28;20202;-78
2020/12/23 12:46:00;;;;;;;3.78;1.60;;;14.40;99.90;;;;;;5008094;28;20026;-79
2020/12/23 12:48:26;;;;;;;3.33;1.80;;;14.50;99.90;;;;;;4992052;28;20076;-78
2020/12/23 12:50:52;;;;;;;3.45;1.70;;;14.50;99.90;;;;;;5010038;28;20065;-78
2020/12/23 12:53:17;;;;;;;3.42;1.80;;;14.60;99.90;;;;;;4995105;28;20054;-78